TAG weather

Tagbilaran Airport
Tagbilaran City, Bohol Province, Philippines

Public forecast

Using degrees Celsius for public forecast. Weather courtesy of forecast.io.

METAR (pilot weather report)

Closest report is Sibulan Airport, 38.4 nm (71.0 km) WSW. Retrieved 2019/06/20 05:00 UTC (34 minutes ago):

RPVD 200500Z 14006KT 9999 FEW014CB SCT220 31/26 Q1007 RMK A2974 CB NE

TAF (pilot weather forecast)

Forecast is more than 12 hours old.

Closest forecast is Sibulan Airport, 38.4 nm (71.0 km) WSW. Retrieved 2019/06/19 00:00 UTC (1 day ago):

TAF RPVD 192300Z 2000/2024 07006KT 9999 FEW015 SCT080 TEMPO 2006/2012 04010KT -TSRA FEW014CB SCT015 BKN070